<?xml version="1.0" encoding="UTF-8" standalone="no" ?>
<gpx xmlns="http://www.topografix.com/GPX/1/1" xmlns:xsi="http://www.w3.org/2001/XMLSchema-instance" xsi:schemaLocation="http://www.topografix.com/GPX/1/1 http://www.topografix.com/GPX/1/1/gpx.xsd" version="1.1" creator="VisuGPX - https://www.visugpx.com">
  <metadata>
    <name>Domfront 21..5km</name>
  </metadata>
  <trk>
    <name><![CDATA[Domfront 21..5km_1]]></name>
    <trkseg>
      <trkpt lat="48.60914" lon="-0.55064">
        <ele>214</ele>
        <time>1989-12-31T00:00:00Z</time>
      </trkpt>
      <trkpt lat="48.6087" lon="-0.55054">
        <ele>212</ele>
        <time>1989-12-31T00:00:09Z</time>
      </trkpt>
      <trkpt lat="48.60699" lon="-0.54985">
        <ele>213</ele>
        <time>1989-12-31T00:00:45Z</time>
      </trkpt>
      <trkpt lat="48.60672" lon="-0.54857">
        <ele>217</ele>
        <time>1989-12-31T00:01:04Z</time>
      </trkpt>
      <trkpt lat="48.60654" lon="-0.54789">
        <ele>220</ele>
        <time>1989-12-31T00:01:14Z</time>
      </trkpt>
      <trkpt lat="48.60557" lon="-0.54717">
        <ele>220</ele>
        <time>1989-12-31T00:01:36Z</time>
      </trkpt>
      <trkpt lat="48.60458" lon="-0.54719">
        <ele>217</ele>
        <time>1989-12-31T00:01:57Z</time>
      </trkpt>
      <trkpt lat="48.60367" lon="-0.54632">
        <ele>215</ele>
        <time>1989-12-31T00:02:19Z</time>
      </trkpt>
      <trkpt lat="48.60456" lon="-0.54607">
        <ele>225</ele>
        <time>1989-12-31T00:02:38Z</time>
      </trkpt>
      <trkpt lat="48.60444" lon="-0.5451">
        <ele>227</ele>
        <time>1989-12-31T00:02:52Z</time>
      </trkpt>
      <trkpt lat="48.60436" lon="-0.54428">
        <ele>229</ele>
        <time>1989-12-31T00:03:03Z</time>
      </trkpt>
      <trkpt lat="48.60446" lon="-0.54421">
        <ele>230</ele>
        <time>1989-12-31T00:03:06Z</time>
      </trkpt>
      <trkpt lat="48.60481" lon="-0.54423">
        <ele>234</ele>
        <time>1989-12-31T00:03:13Z</time>
      </trkpt>
      <trkpt lat="48.60497" lon="-0.54342">
        <ele>236</ele>
        <time>1989-12-31T00:03:24Z</time>
      </trkpt>
      <trkpt lat="48.60491" lon="-0.542">
        <ele>235</ele>
        <time>1989-12-31T00:03:44Z</time>
      </trkpt>
      <trkpt lat="48.60481" lon="-0.53984">
        <ele>231</ele>
        <time>1989-12-31T00:04:14Z</time>
      </trkpt>
      <trkpt lat="48.60464" lon="-0.53886">
        <ele>221</ele>
        <time>1989-12-31T00:04:28Z</time>
      </trkpt>
      <trkpt lat="48.6046" lon="-0.53834">
        <ele>209</ele>
        <time>1989-12-31T00:04:35Z</time>
      </trkpt>
      <trkpt lat="48.60391" lon="-0.53845">
        <ele>202</ele>
        <time>1989-12-31T00:04:49Z</time>
      </trkpt>
      <trkpt lat="48.60451" lon="-0.53811">
        <ele>206</ele>
        <time>1989-12-31T00:05:03Z</time>
      </trkpt>
      <trkpt lat="48.60452" lon="-0.53781">
        <ele>204</ele>
        <time>1989-12-31T00:05:07Z</time>
      </trkpt>
      <trkpt lat="48.60353" lon="-0.53783">
        <ele>199</ele>
        <time>1989-12-31T00:05:27Z</time>
      </trkpt>
      <trkpt lat="48.60319" lon="-0.53751">
        <ele>198</ele>
        <time>1989-12-31T00:05:36Z</time>
      </trkpt>
      <trkpt lat="48.60344" lon="-0.53723">
        <ele>205</ele>
        <time>1989-12-31T00:05:42Z</time>
      </trkpt>
      <trkpt lat="48.60474" lon="-0.53462">
        <ele>234</ele>
        <time>1989-12-31T00:06:27Z</time>
      </trkpt>
      <trkpt lat="48.60698" lon="-0.52998">
        <ele>248</ele>
        <time>1989-12-31T00:07:46Z</time>
      </trkpt>
      <trkpt lat="48.60863" lon="-0.52673">
        <ele>249</ele>
        <time>1989-12-31T00:08:42Z</time>
      </trkpt>
      <trkpt lat="48.60594" lon="-0.52375">
        <ele>235</ele>
        <time>1989-12-31T00:09:51Z</time>
      </trkpt>
      <trkpt lat="48.60369" lon="-0.52087">
        <ele>203</ele>
        <time>1989-12-31T00:10:53Z</time>
      </trkpt>
      <trkpt lat="48.60344" lon="-0.52093">
        <ele>203</ele>
        <time>1989-12-31T00:10:58Z</time>
      </trkpt>
      <trkpt lat="48.60299" lon="-0.52128">
        <ele>208</ele>
        <time>1989-12-31T00:11:08Z</time>
      </trkpt>
      <trkpt lat="48.60279" lon="-0.52142">
        <ele>209</ele>
        <time>1989-12-31T00:11:13Z</time>
      </trkpt>
      <trkpt lat="48.60264" lon="-0.52134">
        <ele>211</ele>
        <time>1989-12-31T00:11:16Z</time>
      </trkpt>
      <trkpt lat="48.60267" lon="-0.52045">
        <ele>219</ele>
        <time>1989-12-31T00:11:28Z</time>
      </trkpt>
      <trkpt lat="48.60232" lon="-0.51447">
        <ele>245</ele>
        <time>1989-12-31T00:12:51Z</time>
      </trkpt>
      <trkpt lat="48.6023" lon="-0.51066">
        <ele>246</ele>
        <time>1989-12-31T00:13:43Z</time>
      </trkpt>
      <trkpt lat="48.60216" lon="-0.5082">
        <ele>232</ele>
        <time>1989-12-31T00:14:17Z</time>
      </trkpt>
      <trkpt lat="48.60246" lon="-0.50613">
        <ele>225</ele>
        <time>1989-12-31T00:14:46Z</time>
      </trkpt>
      <trkpt lat="48.60243" lon="-0.50531">
        <ele>219</ele>
        <time>1989-12-31T00:14:57Z</time>
      </trkpt>
      <trkpt lat="48.60231" lon="-0.50404">
        <ele>221</ele>
        <time>1989-12-31T00:15:15Z</time>
      </trkpt>
      <trkpt lat="48.60224" lon="-0.50299">
        <ele>223</ele>
        <time>1989-12-31T00:15:29Z</time>
      </trkpt>
      <trkpt lat="48.60179" lon="-0.50096">
        <ele>222</ele>
        <time>1989-12-31T00:15:59Z</time>
      </trkpt>
      <trkpt lat="48.60163" lon="-0.49946">
        <ele>225</ele>
        <time>1989-12-31T00:16:19Z</time>
      </trkpt>
      <trkpt lat="48.60171" lon="-0.49828">
        <ele>225</ele>
        <time>1989-12-31T00:16:36Z</time>
      </trkpt>
      <trkpt lat="48.60175" lon="-0.49672">
        <ele>225</ele>
        <time>1989-12-31T00:16:57Z</time>
      </trkpt>
      <trkpt lat="48.60171" lon="-0.49612">
        <ele>225</ele>
        <time>1989-12-31T00:17:05Z</time>
      </trkpt>
      <trkpt lat="48.60218" lon="-0.49503">
        <ele>227</ele>
        <time>1989-12-31T00:17:23Z</time>
      </trkpt>
      <trkpt lat="48.60681" lon="-0.49558">
        <ele>259</ele>
        <time>1989-12-31T00:19:00Z</time>
      </trkpt>
      <trkpt lat="48.60758" lon="-0.49421">
        <ele>265</ele>
        <time>1989-12-31T00:19:24Z</time>
      </trkpt>
      <trkpt lat="48.60872" lon="-0.49211">
        <ele>268</ele>
        <time>1989-12-31T00:20:02Z</time>
      </trkpt>
      <trkpt lat="48.61196" lon="-0.49675">
        <ele>245</ele>
        <time>1989-12-31T00:21:34Z</time>
      </trkpt>
      <trkpt lat="48.61244" lon="-0.49745">
        <ele>249</ele>
        <time>1989-12-31T00:21:48Z</time>
      </trkpt>
      <trkpt lat="48.61572" lon="-0.49227">
        <ele>269</ele>
        <time>1989-12-31T00:23:26Z</time>
      </trkpt>
      <trkpt lat="48.61816" lon="-0.4956">
        <ele>273</ele>
        <time>1989-12-31T00:24:35Z</time>
      </trkpt>
      <trkpt lat="48.61965" lon="-0.49285">
        <ele>274</ele>
        <time>1989-12-31T00:25:23Z</time>
      </trkpt>
      <trkpt lat="48.62201" lon="-0.49566">
        <ele>272</ele>
        <time>1989-12-31T00:26:26Z</time>
      </trkpt>
      <trkpt lat="48.62242" lon="-0.49494">
        <ele>275</ele>
        <time>1989-12-31T00:26:39Z</time>
      </trkpt>
      <trkpt lat="48.62553" lon="-0.49905">
        <ele>285</ele>
        <time>1989-12-31T00:28:05Z</time>
      </trkpt>
      <trkpt lat="48.62657" lon="-0.50082">
        <ele>288</ele>
        <time>1989-12-31T00:28:37Z</time>
      </trkpt>
      <trkpt lat="48.62788" lon="-0.50462">
        <ele>281</ele>
        <time>1989-12-31T00:29:36Z</time>
      </trkpt>
      <trkpt lat="48.62835" lon="-0.50568">
        <ele>281</ele>
        <time>1989-12-31T00:29:53Z</time>
      </trkpt>
      <trkpt lat="48.62868" lon="-0.50608">
        <ele>282</ele>
        <time>1989-12-31T00:30:02Z</time>
      </trkpt>
      <trkpt lat="48.6291" lon="-0.50707">
        <ele>280</ele>
        <time>1989-12-31T00:30:18Z</time>
      </trkpt>
      <trkpt lat="48.62968" lon="-0.50799">
        <ele>279</ele>
        <time>1989-12-31T00:30:36Z</time>
      </trkpt>
      <trkpt lat="48.63021" lon="-0.50824">
        <ele>279</ele>
        <time>1989-12-31T00:30:47Z</time>
      </trkpt>
      <trkpt lat="48.63124" lon="-0.50852">
        <ele>283</ele>
        <time>1989-12-31T00:31:09Z</time>
      </trkpt>
      <trkpt lat="48.63174" lon="-0.5084">
        <ele>287</ele>
        <time>1989-12-31T00:31:19Z</time>
      </trkpt>
      <trkpt lat="48.63229" lon="-0.50813">
        <ele>292</ele>
        <time>1989-12-31T00:31:31Z</time>
      </trkpt>
      <trkpt lat="48.63317" lon="-0.50833">
        <ele>299</ele>
        <time>1989-12-31T00:31:50Z</time>
      </trkpt>
      <trkpt lat="48.63322" lon="-0.5064">
        <ele>307</ele>
        <time>1989-12-31T00:32:16Z</time>
      </trkpt>
      <trkpt lat="48.63756" lon="-0.51237">
        <ele>305</ele>
        <time>1989-12-31T00:34:18Z</time>
      </trkpt>
      <trkpt lat="48.63895" lon="-0.51431">
        <ele>299</ele>
        <time>1989-12-31T00:34:57Z</time>
      </trkpt>
      <trkpt lat="48.64065" lon="-0.51641">
        <ele>301</ele>
        <time>1989-12-31T00:35:43Z</time>
      </trkpt>
      <trkpt lat="48.64097" lon="-0.51717">
        <ele>298</ele>
        <time>1989-12-31T00:35:55Z</time>
      </trkpt>
      <trkpt lat="48.64095" lon="-0.51791">
        <ele>290</ele>
        <time>1989-12-31T00:36:06Z</time>
      </trkpt>
      <trkpt lat="48.64147" lon="-0.51921">
        <ele>279</ele>
        <time>1989-12-31T00:36:26Z</time>
      </trkpt>
      <trkpt lat="48.64229" lon="-0.51985">
        <ele>270</ele>
        <time>1989-12-31T00:36:45Z</time>
      </trkpt>
      <trkpt lat="48.64119" lon="-0.52031">
        <ele>272</ele>
        <time>1989-12-31T00:37:09Z</time>
      </trkpt>
      <trkpt lat="48.63951" lon="-0.52059">
        <ele>274</ele>
        <time>1989-12-31T00:37:44Z</time>
      </trkpt>
      <trkpt lat="48.63901" lon="-0.52071">
        <ele>273</ele>
        <time>1989-12-31T00:37:55Z</time>
      </trkpt>
      <trkpt lat="48.63999" lon="-0.54333">
        <ele>236</ele>
        <time>1989-12-31T00:43:06Z</time>
      </trkpt>
      <trkpt lat="48.64006" lon="-0.5446">
        <ele>235</ele>
        <time>1989-12-31T00:43:23Z</time>
      </trkpt>
      <trkpt lat="48.64009" lon="-0.54564">
        <ele>234</ele>
        <time>1989-12-31T00:43:37Z</time>
      </trkpt>
      <trkpt lat="48.64216" lon="-0.54978">
        <ele>206</ele>
        <time>1989-12-31T00:44:48Z</time>
      </trkpt>
      <trkpt lat="48.64194" lon="-0.55072">
        <ele>197</ele>
        <time>1989-12-31T00:45:02Z</time>
      </trkpt>
      <trkpt lat="48.64192" lon="-0.55139">
        <ele>191</ele>
        <time>1989-12-31T00:45:11Z</time>
      </trkpt>
      <trkpt lat="48.64203" lon="-0.55303">
        <ele>195</ele>
        <time>1989-12-31T00:45:34Z</time>
      </trkpt>
      <trkpt lat="48.64183" lon="-0.55317">
        <ele>196</ele>
        <time>1989-12-31T00:45:39Z</time>
      </trkpt>
      <trkpt lat="48.64031" lon="-0.55279">
        <ele>197</ele>
        <time>1989-12-31T00:46:11Z</time>
      </trkpt>
      <trkpt lat="48.63972" lon="-0.55246">
        <ele>200</ele>
        <time>1989-12-31T00:46:24Z</time>
      </trkpt>
      <trkpt lat="48.64" lon="-0.55322">
        <ele>205</ele>
        <time>1989-12-31T00:46:36Z</time>
      </trkpt>
      <trkpt lat="48.64" lon="-0.55344">
        <ele>205</ele>
        <time>1989-12-31T00:46:39Z</time>
      </trkpt>
      <trkpt lat="48.63827" lon="-0.55335">
        <ele>220</ele>
        <time>1989-12-31T00:47:14Z</time>
      </trkpt>
      <trkpt lat="48.63669" lon="-0.55318">
        <ele>219</ele>
        <time>1989-12-31T00:47:47Z</time>
      </trkpt>
      <trkpt lat="48.63614" lon="-0.5536">
        <ele>218</ele>
        <time>1989-12-31T00:48:00Z</time>
      </trkpt>
      <trkpt lat="48.63427" lon="-0.55342">
        <ele>212</ele>
        <time>1989-12-31T00:48:39Z</time>
      </trkpt>
      <trkpt lat="48.63444" lon="-0.55254">
        <ele>208</ele>
        <time>1989-12-31T00:48:52Z</time>
      </trkpt>
      <trkpt lat="48.6336" lon="-0.55189">
        <ele>217</ele>
        <time>1989-12-31T00:49:11Z</time>
      </trkpt>
      <trkpt lat="48.63311" lon="-0.55179">
        <ele>221</ele>
        <time>1989-12-31T00:49:21Z</time>
      </trkpt>
      <trkpt lat="48.63265" lon="-0.55244">
        <ele>223</ele>
        <time>1989-12-31T00:49:35Z</time>
      </trkpt>
      <trkpt lat="48.63247" lon="-0.55168">
        <ele>224</ele>
        <time>1989-12-31T00:49:45Z</time>
      </trkpt>
      <trkpt lat="48.63163" lon="-0.55178">
        <ele>225</ele>
        <time>1989-12-31T00:50:03Z</time>
      </trkpt>
      <trkpt lat="48.63047" lon="-0.55247">
        <ele>224</ele>
        <time>1989-12-31T00:50:29Z</time>
      </trkpt>
      <trkpt lat="48.62979" lon="-0.55235">
        <ele>225</ele>
        <time>1989-12-31T00:50:43Z</time>
      </trkpt>
      <trkpt lat="48.62881" lon="-0.552">
        <ele>225</ele>
        <time>1989-12-31T00:51:04Z</time>
      </trkpt>
      <trkpt lat="48.62794" lon="-0.55106">
        <ele>227</ele>
        <time>1989-12-31T00:51:26Z</time>
      </trkpt>
      <trkpt lat="48.62673" lon="-0.55218">
        <ele>231</ele>
        <time>1989-12-31T00:51:56Z</time>
      </trkpt>
      <trkpt lat="48.62652" lon="-0.55485">
        <ele>232</ele>
        <time>1989-12-31T00:52:32Z</time>
      </trkpt>
      <trkpt lat="48.62635" lon="-0.55559">
        <ele>232</ele>
        <time>1989-12-31T00:52:43Z</time>
      </trkpt>
      <trkpt lat="48.62669" lon="-0.55799">
        <ele>229</ele>
        <time>1989-12-31T00:53:17Z</time>
      </trkpt>
      <trkpt lat="48.62641" lon="-0.55931">
        <ele>227</ele>
        <time>1989-12-31T00:53:36Z</time>
      </trkpt>
      <trkpt lat="48.62607" lon="-0.56086">
        <ele>229</ele>
        <time>1989-12-31T00:53:58Z</time>
      </trkpt>
      <trkpt lat="48.62607" lon="-0.56123">
        <ele>231</ele>
        <time>1989-12-31T00:54:03Z</time>
      </trkpt>
      <trkpt lat="48.62594" lon="-0.56241">
        <ele>238</ele>
        <time>1989-12-31T00:54:20Z</time>
      </trkpt>
      <trkpt lat="48.62586" lon="-0.56345">
        <ele>240</ele>
        <time>1989-12-31T00:54:34Z</time>
      </trkpt>
      <trkpt lat="48.62375" lon="-0.56289">
        <ele>225</ele>
        <time>1989-12-31T00:55:18Z</time>
      </trkpt>
      <trkpt lat="48.62311" lon="-0.563">
        <ele>227</ele>
        <time>1989-12-31T00:55:32Z</time>
      </trkpt>
      <trkpt lat="48.6231" lon="-0.56129">
        <ele>232</ele>
        <time>1989-12-31T00:55:55Z</time>
      </trkpt>
      <trkpt lat="48.62314" lon="-0.55965">
        <ele>232</ele>
        <time>1989-12-31T00:56:18Z</time>
      </trkpt>
      <trkpt lat="48.62085" lon="-0.56072">
        <ele>232</ele>
        <time>1989-12-31T00:57:08Z</time>
      </trkpt>
      <trkpt lat="48.61997" lon="-0.5623">
        <ele>226</ele>
        <time>1989-12-31T00:57:36Z</time>
      </trkpt>
      <trkpt lat="48.61883" lon="-0.56447">
        <ele>231</ele>
        <time>1989-12-31T00:58:14Z</time>
      </trkpt>
      <trkpt lat="48.61848" lon="-0.56453">
        <ele>230</ele>
        <time>1989-12-31T00:58:21Z</time>
      </trkpt>
      <trkpt lat="48.61642" lon="-0.56397">
        <ele>227</ele>
        <time>1989-12-31T00:59:05Z</time>
      </trkpt>
      <trkpt lat="48.61512" lon="-0.56293">
        <ele>223</ele>
        <time>1989-12-31T00:59:35Z</time>
      </trkpt>
      <trkpt lat="48.61389" lon="-0.56264">
        <ele>222</ele>
        <time>1989-12-31T01:00:01Z</time>
      </trkpt>
      <trkpt lat="48.61174" lon="-0.56177">
        <ele>229</ele>
        <time>1989-12-31T01:00:48Z</time>
      </trkpt>
      <trkpt lat="48.61479" lon="-0.55993">
        <ele>209</ele>
        <time>1989-12-31T01:01:56Z</time>
      </trkpt>
      <trkpt lat="48.61507" lon="-0.55831">
        <ele>205</ele>
        <time>1989-12-31T01:02:19Z</time>
      </trkpt>
      <trkpt lat="48.61529" lon="-0.55758">
        <ele>202</ele>
        <time>1989-12-31T01:02:30Z</time>
      </trkpt>
      <trkpt lat="48.6155" lon="-0.55707">
        <ele>199</ele>
        <time>1989-12-31T01:02:38Z</time>
      </trkpt>
      <trkpt lat="48.61551" lon="-0.5564">
        <ele>201</ele>
        <time>1989-12-31T01:02:47Z</time>
      </trkpt>
      <trkpt lat="48.61553" lon="-0.55566">
        <ele>204</ele>
        <time>1989-12-31T01:02:57Z</time>
      </trkpt>
      <trkpt lat="48.61499" lon="-0.55555">
        <ele>198</ele>
        <time>1989-12-31T01:03:09Z</time>
      </trkpt>
      <trkpt lat="48.6147" lon="-0.55524">
        <ele>196</ele>
        <time>1989-12-31T01:03:16Z</time>
      </trkpt>
      <trkpt lat="48.61457" lon="-0.55456">
        <ele>198</ele>
        <time>1989-12-31T01:03:26Z</time>
      </trkpt>
      <trkpt lat="48.61469" lon="-0.55375">
        <ele>198</ele>
        <time>1989-12-31T01:03:37Z</time>
      </trkpt>
      <trkpt lat="48.61545" lon="-0.55275">
        <ele>202</ele>
        <time>1989-12-31T01:03:58Z</time>
      </trkpt>
      <trkpt lat="48.61493" lon="-0.55198">
        <ele>201</ele>
        <time>1989-12-31T01:04:13Z</time>
      </trkpt>
      <trkpt lat="48.61461" lon="-0.55084">
        <ele>213</ele>
        <time>1989-12-31T01:04:30Z</time>
      </trkpt>
      <trkpt lat="48.61428" lon="-0.55038">
        <ele>215</ele>
        <time>1989-12-31T01:04:40Z</time>
      </trkpt>
      <trkpt lat="48.61216" lon="-0.55041">
        <ele>214</ele>
        <time>1989-12-31T01:05:24Z</time>
      </trkpt>
      <trkpt lat="48.61088" lon="-0.55004">
        <ele>210</ele>
        <time>1989-12-31T01:05:51Z</time>
      </trkpt>
      <trkpt lat="48.60994" lon="-0.54828">
        <ele>216</ele>
        <time>1989-12-31T01:06:22Z</time>
      </trkpt>
      <trkpt lat="48.60938" lon="-0.54899">
        <ele>216</ele>
        <time>1989-12-31T01:06:37Z</time>
      </trkpt>
      <trkpt lat="48.60909" lon="-0.55076">
        <ele>214</ele>
        <time>1989-12-31T01:07:02Z</time>
      </trkpt>
    </trkseg>
  </trk>
</gpx>